Wilmington, OH

6:04 PM EST on February 10, 2016 (GMT -0500)
2.2 N Wilmington | | Change Station
CLOSE
Current Station
Personal Weather Station
Location: Wilmington, OH
Elevation: 1053 ft
Nearby Weather Stations

Elev 1053 ft 39.47 °N, 83.84 °W | Updated 32 seconds ago

Overcast
Overcast
14.2 °F
Feels Like 5 °F
N
6.0
Wind Variable Wind from NW
Gusts 11.0 mph

Today
High -- | Low -- °F
--% Chance of Precip.
Yesterday
High -- | Low -- °F
Precip. -- in
Pressure 30.14 in
Visibility 10.0 miles
Clouds Overcast 3700 ft
Windchill 5 °F
Dew Point 8 °F
Humidity 77%
Rainfall 0.00 in
Snow Depth Not available.
7:33 AM 6:05 PM
Waxing Crescent, 7% visible
METAR KILN 102254Z AUTO 28012KT 10SM OVC037 M10/M15 A3002 RMK AO2 SNB02E20 SLP207 P0000 T11001150
Pressure 30.14 in
Visibility 10.0 miles
Clouds Overcast 3700 ft
Windchill 5 °F
Dew Point 8 °F
Humidity 77%
Rainfall 0.00 in
Snow Depth Not available.
7:33 AM 6:05 PM
Waxing Crescent, 7% visible
METAR KILN 102254Z AUTO 28012KT 10SM OVC037 M10/M15 A3002 RMK AO2 SNB02E20 SLP207 P0000 T11001150

10-Day Weather Forecast

Almanac

Astronomy

Feb. 10, 2016 Rise Set
Actual Time
Civil Twilight
Nautical Twilight
Astronomical Twilight
Moon
Length of Visible Light
Length of Day
Tomorrow will be .
, % of the Moon is Illuminated

Today's Extremes

State Highs State Lows

Community

WunderPhotos

Upload Photos

1,891,933 photos uploaded!

WunderBlog® & News

Nearby

Air Quality

  Air Quality AQ Index Pollutant
Not available.

Snow Depth

Station Depth Elevation

Earthquake Activity

City Distance Mag. Time & Date
Minimum magnitude displayed is 2.5.

Coastal Water Temperatures

Place Temperature

Stations

Nearby Weather Stations

Station Location Temp. Windchill Dew Point Humidity Wind Precip. Elev Updated Type
                   

Watches & Warnings

There are currently no watches in effect.